Time;durP1;ratioP1;P1;durP2;ratioP2;P2;SDS_P1;SDS_P2;PMS_P1;PMS_P2;Temp;Humidity;BMP_temperature;BMP_pressure;BME280_temperature;BME280_humidity;BME280_pressure;Samples;Min_cycle;Max_cycle;Signal;HPM_P1;HPM_P2
2024/02/24 00:00:18;;;;;;;1.13;1.00;;;;;;;6.94;69.19;99207.59;5090727;28;20204;-74
2024/02/24 00:02:44;;;;;;;3.27;1.10;;;;;;;6.94;69.81;99211.94;5088530;28;20663;-72
2024/02/24 00:05:11;;;;;;;5.40;1.23;;;;;;;6.91;70.00;99206.81;5091127;28;20277;-74
2024/02/24 00:07:37;;;;;;;1.93;1.07;;;;;;;6.88;70.54;99212.94;5090187;28;20618;-75
2024/02/24 00:10:04;;;;;;;1.83;0.80;;;;;;;6.70;68.89;99209.03;5090558;28;20582;-74
2024/02/24 00:12:31;;;;;;;2.23;1.33;;;;;;;6.83;70.50;99195.75;5089588;28;20566;-74
2024/02/24 00:14:58;;;;;;;3.73;1.10;;;;;;;6.88;69.35;99193.94;5089827;28;20285;-71
2024/02/24 00:17:25;;;;;;;3.50;1.10;;;;;;;6.92;69.09;99195.56;5091233;28;20230;-74
2024/02/24 00:19:51;;;;;;;1.70;1.03;;;;;;;6.88;68.55;99209.50;5091287;28;20208;-74
2024/02/24 00:22:17;;;;;;;2.17;1.10;;;;;;;6.92;68.72;99214.56;5091329;28;20207;-74
2024/02/24 00:24:44;;;;;;;2.70;1.00;;;;;;;6.95;68.52;99214.47;5091720;28;20819;-74
2024/02/24 00:27:10;;;;;;;4.30;1.17;;;;;;;6.96;70.12;99228.31;5085904;28;20253;-74
2024/02/24 00:29:38;;;;;;;1.00;0.90;;;;;;;6.86;69.41;99219.06;5091390;28;20196;-74
2024/02/24 00:32:04;;;;;;;3.93;0.97;;;;;;;6.94;69.12;99224.91;5091362;28;20204;-74
2024/02/24 00:34:31;;;;;;;2.63;1.07;;;;;;;7.01;69.77;99218.66;5092338;28;20250;-73
2024/02/24 00:36:57;;;;;;;2.37;0.70;;;;;;;7.03;68.60;99229.00;5092133;28;20208;-74
2024/02/24 00:39:24;;;;;;;2.83;0.93;;;;;;;7.04;68.77;99230.72;5091617;28;20208;-74
2024/02/24 00:41:52;;;;;;;1.87;0.87;;;;;;;7.07;69.71;99228.03;5093423;28;20678;-74
2024/02/24 00:44:18;;;;;;;3.43;1.10;;;;;;;7.11;68.54;99240.91;5093570;28;20747;-74
2024/02/24 00:46:46;;;;;;;2.47;0.90;;;;;;;7.11;68.67;99245.25;5092232;28;20252;-73
2024/02/24 00:49:12;;;;;;;1.73;0.80;;;;;;;7.20;68.21;99241.59;5092614;28;20716;-74
2024/02/24 00:51:41;;;;;;;2.53;1.10;;;;;;;7.23;67.60;99259.66;5092012;28;20206;-74
2024/02/24 00:54:08;;;;;;;2.37;0.90;;;;;;;7.20;67.49;99268.38;5092633;28;20256;-74
2024/02/24 00:56:34;;;;;;;2.87;1.23;;;;;;;7.09;68.90;99270.38;5089586;28;20588;-74
2024/02/24 00:59:00;;;;;;;1.53;0.90;;;;;;;7.11;68.82;99264.25;5090976;28;20208;-74
2024/02/24 01:01:27;;;;;;;3.20;0.70;;;;;;;7.11;68.75;99253.88;5090626;28;20258;-74
2024/02/24 01:03:54;;;;;;;0.93;0.83;;;;;;;7.08;68.85;99250.53;5090557;28;20223;-74
2024/02/24 01:06:22;;;;;;;1.30;0.90;;;;;;;7.06;69.08;99241.94;5090675;28;20197;-71
2024/02/24 01:08:48;;;;;;;2.57;1.10;;;;;;;6.93;68.51;99241.34;5091309;28;20196;-74
2024/02/24 01:11:15;;;;;;;1.80;0.80;;;;;;;6.92;70.10;99234.47;5082333;28;20250;-74
2024/02/24 01:13:42;;;;;;;2.50;0.90;;;;;;;6.83;69.25;99226.88;5091016;28;20289;-74
2024/02/24 01:16:09;;;;;;;2.20;1.00;;;;;;;6.85;68.91;99225.09;5090778;28;20230;-74
2024/02/24 01:18:35;;;;;;;2.27;0.80;;;;;;;6.73;69.52;99227.09;5084827;28;20254;-74
2024/02/24 01:21:04;;;;;;;1.37;0.80;;;;;;;6.79;69.89;99215.72;5079924;28;20671;-73
2024/02/24 01:23:30;;;;;;;1.83;0.70;;;;;;;6.62;69.09;99220.44;5090906;28;20220;-72
2024/02/24 01:25:57;;;;;;;1.30;1.10;;;;;;;6.70;69.60;99224.59;5089777;28;20224;-74
2024/02/24 01:28:23;;;;;;;1.00;0.83;;;;;;;6.72;69.97;99211.59;5090985;28;20208;-74
2024/02/24 01:30:50;;;;;;;2.37;0.80;;;;;;;6.73;70.06;99203.75;5090314;28;20257;-75
2024/02/24 01:33:16;;;;;;;3.93;1.20;;;;;;;6.74;70.51;99194.25;5089487;28;20277;-74
2024/02/24 01:35:42;;;;;;;1.93;1.00;;;;;;;6.69;70.55;99193.50;5090461;28;20204;-74
2024/02/24 01:38:10;;;;;;;3.43;1.03;;;;;;;6.70;70.56;99174.44;5090405;28;20215;-74
2024/02/24 01:40:37;;;;;;;1.60;1.10;;;;;;;6.69;70.26;99181.38;5089421;28;20680;-76
2024/02/24 01:43:03;;;;;;;2.07;1.47;;;;;;;6.57;70.14;99185.09;5090585;28;20208;-74
2024/02/24 01:45:30;;;;;;;6.53;1.10;;;;;;;6.57;70.17;99184.25;5089904;28;20231;-74
2024/02/24 01:47:57;;;;;;;3.13;1.00;;;;;;;6.66;70.33;99175.41;5090061;28;20206;-75
2024/02/24 01:50:25;;;;;;;2.30;0.80;;;;;;;6.68;69.53;99184.00;5086721;28;20200;-74
2024/02/24 01:52:51;;;;;;;1.47;1.00;;;;;;;6.69;69.05;99191.75;5086192;28;20666;-72
2024/02/24 01:55:19;;;;;;;2.33;0.93;;;;;;;6.72;69.97;99196.88;5090150;28;20234;-74
2024/02/24 01:57:51;;;;;;;2.50;0.80;;;;;;;6.75;69.29;99190.75;5089228;28;20281;-74
2024/02/24 02:00:17;;;;;;;1.23;0.90;;;;;;;6.78;70.05;99184.63;5087832;28;20282;-74
2024/02/24 02:02:44;;;;;;;2.13;1.00;;;;;;;6.70;69.89;99198.66;5084732;28;20228;-71
2024/02/24 02:05:13;;;;;;;1.80;0.73;;;;;;;6.70;70.06;99196.06;5090392;28;20598;-74
2024/02/24 02:07:39;;;;;;;1.93;1.13;;;;;;;6.63;68.66;99206.59;5089680;28;20208;-74
2024/02/24 02:10:06;;;;;;;2.93;1.23;;;;;;;6.59;69.75;99204.97;5090736;28;20215;-75
2024/02/24 02:12:35;;;;;;;3.17;0.97;;;;;;;6.54;69.36;99207.66;5090665;28;20215;-74
2024/02/24 02:15:03;;;;;;;1.50;0.80;;;;;;;6.41;70.90;99191.53;5090617;28;20224;-75
2024/02/24 02:17:30;;;;;;;1.13;0.70;;;;;;;6.50;71.07;99174.91;5090318;28;20203;-74
2024/02/24 02:20:00;;;;;;;1.73;0.90;;;;;;;6.32;70.41;99171.88;5090296;28;20204;-74
2024/02/24 02:22:28;;;;;;;1.67;0.90;;;;;;;6.35;70.58;99161.41;5090038;28;20268;-73
2024/02/24 02:24:54;;;;;;;2.87;1.03;;;;;;;6.37;70.85;99169.16;5090752;28;20269;-74
2024/02/24 02:27:21;;;;;;;2.87;1.10;;;;;;;6.35;70.64;99168.34;5089401;28;20200;-76
2024/02/24 02:29:47;;;;;;;2.27;1.00;;;;;;;6.36;70.66;99165.72;5090239;28;20245;-74
2024/02/24 02:32:13;;;;;;;2.07;0.90;;;;;;;6.34;70.62;99164.91;5089015;28;20204;-74
2024/02/24 02:34:39;;;;;;;3.20;0.90;;;;;;;6.34;70.77;99164.91;5089328;28;20637;-74
2024/02/24 02:37:06;;;;;;;3.20;1.10;;;;;;;6.37;70.67;99171.75;5089440;28;20213;-74
2024/02/24 02:39:34;;;;;;;1.47;0.80;;;;;;;6.33;70.74;99164.94;5089372;28;20725;-74
2024/02/24 02:42:01;;;;;;;1.80;0.97;;;;;;;6.23;71.05;99161.69;5080865;28;20742;-74
2024/02/24 02:44:27;;;;;;;2.73;1.10;;;;;;;6.19;71.74;99160.06;5088784;28;20231;-73
2024/02/24 02:46:53;;;;;;;4.00;0.90;;;;;;;6.23;71.12;99148.72;5092289;28;20253;-73
2024/02/24 02:49:20;;;;;;;2.63;1.10;;;;;;;6.17;71.42;99161.81;5094105;28;21496;-74
2024/02/24 02:51:46;;;;;;;1.83;1.00;;;;;;;6.16;72.09;99144.56;5093959;28;20630;-73
2024/02/24 02:54:12;;;;;;;2.23;0.80;;;;;;;6.21;71.81;99126.34;5093415;28;20582;-74
2024/02/24 02:56:40;;;;;;;2.17;0.90;;;;;;;6.27;71.10;99140.00;5092046;28;20200;-74
2024/02/24 02:59:06;;;;;;;2.83;0.70;;;;;;;6.28;71.73;99144.31;5093292;28;20209;-74
2024/02/24 03:01:33;;;;;;;2.17;1.00;;;;;;;6.19;70.49;99154.88;5093159;28;20680;-71
2024/02/24 03:03:59;;;;;;;1.90;0.97;;;;;;;6.08;70.71;99159.41;5093088;28;20221;-74
2024/02/24 03:06:25;;;;;;;3.03;1.30;;;;;;;6.04;71.43;99162.97;5092993;28;20269;-74
2024/02/24 03:08:52;;;;;;;2.40;1.00;;;;;;;6.13;71.52;99152.41;5093496;28;20244;-73
2024/02/24 03:11:18;;;;;;;1.50;0.70;;;;;;;6.09;70.96;99163.72;5091931;28;20201;-74
2024/02/24 03:13:46;;;;;;;1.57;0.93;;;;;;;5.92;71.53;99170.06;5093146;28;20770;-74
2024/02/24 03:16:12;;;;;;;2.10;0.80;;;;;;;6.06;71.85;99163.78;5092790;28;20246;-74
2024/02/24 03:18:38;;;;;;;2.10;0.90;;;;;;;6.09;71.47;99174.09;5092858;28;20258;-74
2024/02/24 03:21:05;;;;;;;2.77;1.20;;;;;;;6.16;71.37;99165.28;5093379;28;20200;-73
2024/02/24 03:23:31;;;;;;;2.40;1.20;;;;;;;6.09;71.39;99172.34;5092843;28;20273;-72
2024/02/24 03:25:58;;;;;;;2.93;1.20;;;;;;;6.18;71.86;99158.34;5092512;28;20224;-74
2024/02/24 03:28:24;;;;;;;1.27;0.80;;;;;;;6.25;71.80;99159.91;5092062;28;20257;-72
2024/02/24 03:30:52;;;;;;;1.53;0.90;;;;;;;6.39;71.16;99169.13;5093351;28;20268;-73
2024/02/24 03:33:18;;;;;;;1.93;1.00;;;;;;;6.35;70.96;99187.31;5092542;28;20782;-75
2024/02/24 03:35:44;;;;;;;1.53;0.80;;;;;;;6.36;71.51;99185.56;5092883;28;20202;-74
2024/02/24 03:38:11;;;;;;;3.67;1.27;;;;;;;6.29;69.98;99200.41;5092445;28;20204;-73
2024/02/24 03:40:38;;;;;;;2.40;1.10;;;;;;;6.28;70.60;99203.91;5092785;28;20197;-73
2024/02/24 03:43:04;;;;;;;3.37;1.10;;;;;;;6.39;70.78;99197.63;5092095;28;20277;-74
2024/02/24 03:45:32;;;;;;;2.37;1.00;;;;;;;6.30;70.76;99202.13;5091718;28;20915;-74
2024/02/24 03:47:59;;;;;;;2.67;1.00;;;;;;;6.11;70.43;99217.22;5092703;28;20205;-74
2024/02/24 03:50:26;;;;;;;2.17;1.30;;;;;;;6.22;70.97;99196.25;5091882;28;20208;-73
2024/02/24 03:52:52;;;;;;;2.33;1.20;;;;;;;6.14;70.23;99211.97;5084167;28;20208;-73
2024/02/24 03:55:18;;;;;;;1.93;1.00;;;;;;;6.22;70.88;99211.78;5091179;28;20729;-73
2024/02/24 03:57:45;;;;;;;2.17;1.17;;;;;;;6.17;70.38;99216.22;5091103;28;20320;-73
2024/02/24 04:00:12;;;;;;;2.93;1.03;;;;;;;6.28;71.48;99205.63;5092040;28;20208;-73
2024/02/24 04:02:42;;;;;;;2.20;0.90;;;;;;;6.21;69.93;99215.28;5092132;28;20245;-74
2024/02/24 04:05:10;;;;;;;2.67;1.20;;;;;;;6.21;71.09;99217.88;5091574;28;20698;-73
2024/02/24 04:07:37;;;;;;;4.73;1.30;;;;;;;6.28;71.54;99208.22;5091892;28;20434;-74
2024/02/24 04:10:04;;;;;;;2.73;1.00;;;;;;;6.30;71.46;99201.25;5091814;28;20621;-73
2024/02/24 04:12:31;;;;;;;2.10;0.97;;;;;;;6.36;71.30;99199.41;5087636;28;20246;-73
2024/02/24 04:14:57;;;;;;;1.67;0.83;;;;;;;6.29;71.24;99217.72;5090502;28;20224;-74
2024/02/24 04:17:24;;;;;;;1.93;0.90;;;;;;;6.34;71.44;99219.31;5092562;28;20261;-73
2024/02/24 04:19:50;;;;;;;3.93;1.20;;;;;;;6.38;71.31;99227.88;5093150;28;20257;-74
2024/02/24 04:22:17;;;;;;;2.13;1.17;;;;;;;6.33;71.26;99219.34;5093736;28;20631;-73
2024/02/24 04:24:44;;;;;;;3.73;0.97;;;;;;;6.36;70.79;99227.03;5092820;28;20231;-74
2024/02/24 04:27:10;;;;;;;2.83;1.10;;;;;;;6.37;70.78;99228.78;5091101;28;20227;-74
2024/02/24 04:29:36;;;;;;;2.37;1.10;;;;;;;6.20;70.57;99231.69;5092639;28;20200;-73
2024/02/24 04:32:03;;;;;;;1.17;1.07;;;;;;;6.10;71.53;99225.84;5091899;28;20204;-73
2024/02/24 04:34:30;;;;;;;2.43;1.10;;;;;;;6.14;71.60;99213.69;5091796;28;20235;-72
2024/02/24 04:36:56;;;;;;;1.50;1.10;;;;;;;6.13;71.83;99199.91;5091244;28;20203;-74
2024/02/24 04:39:23;;;;;;;1.57;1.30;;;;;;;6.15;72.06;99197.28;5090963;28;20207;-73
2024/02/24 04:41:50;;;;;;;1.10;0.70;;;;;;;6.05;72.42;99195.78;5091472;28;20204;-73
2024/02/24 04:44:16;;;;;;;1.60;1.00;;;;;;;5.93;73.04;99189.06;5091048;28;20775;-73
2024/02/24 04:46:43;;;;;;;2.27;0.80;;;;;;;5.96;73.06;99169.16;5091039;28;20224;-73
2024/02/24 04:49:09;;;;;;;3.17;1.00;;;;;;;6.05;73.55;99152.56;5091225;28;20250;-73
2024/02/24 04:51:35;;;;;;;3.60;0.93;;;;;;;6.02;73.06;99164.72;5090772;28;20255;-73
2024/02/24 04:54:02;;;;;;;2.60;1.00;;;;;;;5.96;72.79;99161.38;5090976;28;20224;-76
2024/02/24 04:56:29;;;;;;;2.00;1.03;;;;;;;5.99;72.86;99164.81;5089446;28;20743;-73
2024/02/24 04:58:56;;;;;;;2.13;0.80;;;;;;;5.96;73.90;99163.13;5091402;28;20229;-73
2024/02/24 05:01:22;;;;;;;2.63;1.00;;;;;;;5.99;73.86;99150.13;5090283;28;20276;-73
2024/02/24 05:03:48;;;;;;;2.13;0.80;;;;;;;5.88;74.02;99155.47;5091057;28;20220;-72
2024/02/24 05:06:15;;;;;;;1.57;1.13;;;;;;;5.92;74.54;99148.50;5091107;28;20371;-73
2024/02/24 05:08:43;;;;;;;1.83;1.10;;;;;;;5.89;74.73;99140.81;5090082;28;20252;-74
2024/02/24 05:11:10;;;;;;;1.80;0.93;;;;;;;5.83;74.27;99138.31;5090880;28;20203;-74
2024/02/24 05:13:37;;;;;;;1.20;0.70;;;;;;;5.77;75.16;99134.16;5090580;28;20228;-73
2024/02/24 05:16:04;;;;;;;1.27;1.00;;;;;;;5.78;75.00;99115.13;5090908;28;20202;-75
2024/02/24 05:18:30;;;;;;;3.17;1.00;;;;;;;5.84;74.70;99106.38;5090097;28;20204;-73
2024/02/24 05:20:58;;;;;;;1.23;1.10;;;;;;;5.82;74.93;99119.34;5090863;28;20262;-72
2024/02/24 05:23:24;;;;;;;1.70;1.00;;;;;;;5.79;74.95;99127.19;5091182;28;20785;-74
2024/02/24 05:25:51;;;;;;;1.33;1.03;;;;;;;5.75;74.58;99122.97;5089761;28;20235;-76
2024/02/24 05:28:17;;;;;;;3.23;1.20;;;;;;;5.68;74.57;99129.16;5091075;28;20211;-74
2024/02/24 05:30:45;;;;;;;2.07;0.83;;;;;;;5.61;75.10;99124.97;5090285;28;20957;-73
2024/02/24 05:33:13;;;;;;;2.67;1.40;;;;;;;5.60;75.64;99120.69;5089837;28;20224;-73
2024/02/24 05:35:40;;;;;;;2.73;1.10;;;;;;;5.56;75.82;99118.16;5089997;28;20488;-72
2024/02/24 05:38:06;;;;;;;1.30;1.20;;;;;;;5.70;75.40;99119.59;5090554;28;20206;-73
2024/02/24 05:40:32;;;;;;;2.67;1.30;;;;;;;5.69;74.71;99126.53;5089933;28;20258;-72
2024/02/24 05:42:59;;;;;;;5.73;1.43;;;;;;;5.76;74.35;99142.78;5090041;28;20214;-74
2024/02/24 05:45:25;;;;;;;2.70;1.63;;;;;;;5.64;73.73;99156.81;5090316;28;20204;-73
2024/02/24 05:47:53;;;;;;;2.60;1.00;;;;;;;5.67;74.00;99163.66;5089706;28;20265;-74
2024/02/24 05:50:19;;;;;;;3.57;1.30;;;;;;;5.46;74.10;99170.97;5090131;28;20207;-74
2024/02/24 05:52:45;;;;;;;4.00;1.50;;;;;;;5.54;73.85;99179.44;5090359;28;20249;-72
2024/02/24 05:55:14;;;;;;;1.83;1.30;;;;;;;5.54;75.56;99165.66;5090422;28;20237;-73
2024/02/24 05:57:42;;;;;;;3.33;1.20;;;;;;;5.65;74.70;99162.84;5090060;28;20216;-73
2024/02/24 06:00:11;;;;;;;2.73;1.27;;;;;;;5.53;74.86;99179.47;5090110;28;20215;-73
2024/02/24 06:02:37;;;;;;;2.20;1.27;;;;;;;5.63;74.76;99164.59;5089934;28;20302;-73
2024/02/24 06:05:05;;;;;;;2.77;1.30;;;;;;;5.80;73.84;99177.25;5089959;28;20224;-73
2024/02/24 06:07:32;;;;;;;3.10;0.97;;;;;;;5.83;73.84;99184.94;5090515;28;20227;-74
2024/02/24 06:09:58;;;;;;;1.67;1.10;;;;;;;5.94;74.35;99183.00;5081465;28;20210;-71
2024/02/24 06:12:24;;;;;;;2.00;1.30;;;;;;;5.91;74.04;99202.03;5090559;28;20204;-73
2024/02/24 06:14:51;;;;;;;2.33;1.20;;;;;;;5.99;73.76;99209.69;5089808;28;20227;-74
2024/02/24 06:17:17;;;;;;;1.40;0.90;;;;;;;5.77;73.88;99207.50;5088736;28;20719;-75
2024/02/24 06:19:44;;;;;;;1.67;1.10;;;;;;;5.94;74.07;99212.31;5093724;28;20217;-73
2024/02/24 06:22:11;;;;;;;2.40;1.27;;;;;;;5.83;73.84;99227.25;5094397;28;20253;-72
2024/02/24 06:24:38;;;;;;;1.50;1.33;;;;;;;5.90;73.87;99221.03;5093716;28;20318;-73
2024/02/24 06:27:04;;;;;;;2.50;1.10;;;;;;;5.91;74.04;99216.72;5093113;28;20224;-71
2024/02/24 06:29:31;;;;;;;2.57;1.30;;;;;;;6.05;73.47;99229.44;5094008;28;20200;-74
2024/02/24 06:31:57;;;;;;;3.67;1.40;;;;;;;6.06;74.30;99238.91;5093462;28;20257;-74
2024/02/24 06:34:23;;;;;;;3.23;1.10;;;;;;;6.10;73.97;99237.97;5094127;28;20228;-73
2024/02/24 06:36:50;;;;;;;4.30;1.60;;;;;;;6.21;74.14;99238.59;5093271;28;20651;-73
2024/02/24 06:39:17;;;;;;;2.67;1.30;;;;;;;6.32;73.02;99246.13;5094131;28;20212;-75
2024/02/24 06:41:44;;;;;;;3.47;1.20;;;;;;;6.34;72.97;99268.56;5093070;28;20257;-73
2024/02/24 06:44:10;;;;;;;4.80;1.20;;;;;;;6.31;72.87;99275.53;5086713;28;20268;-74
2024/02/24 06:46:36;;;;;;;2.10;1.03;;;;;;;6.39;72.73;99285.75;5091472;28;20652;-74
2024/02/24 06:49:03;;;;;;;4.40;1.50;;;;;;;6.49;73.53;99285.53;5093603;28;20626;-73
2024/02/24 06:51:29;;;;;;;1.27;0.97;;;;;;;6.50;73.35;99279.47;5093336;28;20588;-72
2024/02/24 06:53:56;;;;;;;1.40;1.23;;;;;;;6.28;72.74;99292.03;5093632;28;20704;-72
2024/02/24 06:56:23;;;;;;;2.40;1.33;;;;;;;6.46;73.13;99282.13;5091941;28;20229;-71
2024/02/24 06:58:50;;;;;;;3.90;1.40;;;;;;;6.48;73.75;99289.03;5093433;28;20622;-74
2024/02/24 07:01:21;;;;;;;2.77;1.23;;;;;;;6.48;73.31;99278.66;5092984;28;20259;-75
2024/02/24 07:03:47;;;;;;;1.87;1.10;;;;;;;6.37;73.77;99275.41;5093482;28;20220;-73
2024/02/24 07:06:14;;;;;;;1.80;1.30;;;;;;;6.39;73.96;99286.59;5093646;28;20224;-77
2024/02/24 07:08:40;;;;;;;2.20;1.37;;;;;;;6.47;73.86;99282.13;5093000;28;20236;-74
2024/02/24 07:11:06;;;;;;;1.37;1.20;;;;;;;6.44;72.19;99297.75;5092821;28;20585;-73
2024/02/24 07:13:34;;;;;;;2.10;1.30;;;;;;;6.55;72.81;99289.72;5093269;28;20284;-73
2024/02/24 07:16:00;;;;;;;3.07;1.30;;;;;;;6.66;72.34;99292.09;5093592;28;20204;-72
2024/02/24 07:18:26;;;;;;;2.87;1.43;;;;;;;6.65;73.64;99299.03;5092557;28;20204;-73
2024/02/24 07:20:54;;;;;;;2.20;1.17;;;;;;;6.69;74.05;99284.25;5092998;28;20208;-73
2024/02/24 07:23:20;;;;;;;3.10;1.30;;;;;;;6.65;72.96;99282.63;5093122;28;20786;-77
2024/02/24 07:25:47;;;;;;;3.83;1.10;;;;;;;6.63;73.21;99298.19;5091682;28;20212;-76
2024/02/24 07:28:13;;;;;;;1.83;0.90;;;;;;;6.41;72.90;99312.50;5092358;28;20743;-76
2024/02/24 07:30:41;;;;;;;3.07;1.27;;;;;;;6.52;72.14;99326.06;5091850;28;20209;-76
2024/02/24 07:33:07;;;;;;;1.97;1.20;;;;;;;6.62;72.96;99337.13;5091088;28;20294;-77
2024/02/24 07:35:33;;;;;;;2.33;1.50;;;;;;;6.64;71.91;99348.31;5092416;28;20200;-75
2024/02/24 07:37:59;;;;;;;1.33;1.20;;;;;;;6.69;72.70;99344.75;5091115;28;20203;-75
2024/02/24 07:40:26;;;;;;;1.77;1.10;;;;;;;6.80;73.04;99344.53;5092397;28;20250;-75
2024/02/24 07:42:54;;;;;;;3.17;1.17;;;;;;;6.82;72.84;99340.16;5091711;28;20257;-75
2024/02/24 07:45:21;;;;;;;2.43;2.23;;;;;;;6.89;71.51;99346.91;5092637;28;20205;-74
2024/02/24 07:47:48;;;;;;;3.53;1.60;;;;;;;6.89;71.67;99365.06;5090807;28;20220;-80
2024/02/24 07:50:15;;;;;;;1.77;1.23;;;;;;;6.89;72.14;99365.06;5092729;28;20202;-74
2024/02/24 07:52:41;;;;;;;1.77;1.13;;;;;;;6.93;72.86;99358.94;5097068;28;20200;-75
2024/02/24 07:55:07;;;;;;;2.30;1.17;;;;;;;7.03;71.68;99362.19;5092660;28;20602;-75
2024/02/24 07:57:34;;;;;;;2.83;1.47;;;;;;;7.03;72.17;99369.97;5091372;28;20196;-75
2024/02/24 08:00:00;;;;;;;1.73;1.30;;;;;;;7.14;71.78;99369.75;5092480;28;20220;-76
2024/02/24 08:02:27;;;;;;;1.73;1.07;;;;;;;7.15;71.44;99359.34;5092131;28;20208;-75
2024/02/24 08:04:55;;;;;;;2.87;1.43;;;;;;;7.20;71.49;99379.97;5091681;28;20584;-73
2024/02/24 08:07:21;;;;;;;1.93;1.73;;;;;;;7.22;72.21;99383.41;5091425;28;20599;-75
2024/02/24 08:09:48;;;;;;;3.43;1.20;;;;;;;7.14;71.35;99385.31;5090497;28;20200;-73
2024/02/24 08:12:15;;;;;;;1.77;1.27;;;;;;;7.11;71.24;99377.56;5090321;28;20205;-74
2024/02/24 08:14:41;;;;;;;1.83;1.13;;;;;;;7.16;71.99;99386.97;5091046;28;20358;-74
2024/02/24 08:17:08;;;;;;;2.90;1.47;;;;;;;7.13;71.15;99393.97;5091528;28;20559;-74
2024/02/24 08:19:35;;;;;;;2.03;1.07;;;;;;;7.08;71.71;99388.03;5091641;28;20208;-75
2024/02/24 08:22:03;;;;;;;1.47;0.87;;;;;;;7.12;71.69;99389.69;5092327;28;20211;-75
2024/02/24 08:24:29;;;;;;;1.83;1.00;;;;;;;7.20;70.70;99410.28;5091174;28;20775;-75
2024/02/24 08:26:56;;;;;;;1.07;0.90;;;;;;;7.12;70.29;99423.41;5091120;28;20779;-76
2024/02/24 08:29:22;;;;;;;1.03;0.90;;;;;;;7.21;71.14;99419.75;5091774;28;20257;-75
2024/02/24 08:31:49;;;;;;;2.63;1.00;;;;;;;7.13;70.79;99423.34;5091600;28;20197;-76
2024/02/24 08:34:15;;;;;;;2.23;1.10;;;;;;;7.24;71.74;99415.38;5090871;28;20256;-75
2024/02/24 08:36:42;;;;;;;1.73;0.93;;;;;;;7.20;70.10;99416.31;5091620;28;20230;-75
2024/02/24 08:39:09;;;;;;;2.70;0.90;;;;;;;7.02;70.37;99443.50;5090856;28;20207;-77
2024/02/24 08:41:36;;;;;;;1.47;1.00;;;;;;;7.04;70.18;99431.34;5089734;28;20205;-75
2024/02/24 08:44:02;;;;;;;2.27;1.20;;;;;;;7.21;70.40;99438.78;5090946;28;20717;-74
2024/02/24 08:46:29;;;;;;;1.43;0.97;;;;;;;7.22;70.49;99430.13;5090895;28;20670;-77
2024/02/24 08:48:56;;;;;;;1.47;1.10;;;;;;;7.14;69.87;99448.44;5091361;28;20681;-75
2024/02/24 08:51:23;;;;;;;1.70;0.90;;;;;;;7.25;69.34;99449.94;5091208;28;20208;-74
2024/02/24 08:53:50;;;;;;;1.93;0.90;;;;;;;7.26;70.18;99462.91;5090675;28;20795;-74
2024/02/24 08:56:20;;;;;;;3.03;0.93;;;;;;;7.43;70.50;99452.13;5090144;28;20205;-75
2024/02/24 08:58:46;;;;;;;2.00;0.80;;;;;;;7.58;71.17;99439.72;5089648;28;20200;-75
2024/02/24 09:01:14;;;;;;;1.37;0.90;;;;;;;7.84;75.94;99403.56;5087260;28;20234;-76
2024/02/24 09:03:40;;;;;;;1.53;1.10;;;;;;;7.74;71.62;99417.69;5090764;28;20224;-77
2024/02/24 09:06:07;;;;;;;1.03;0.83;;;;;;;7.82;70.01;99433.09;5089710;28;20212;-76
2024/02/24 09:08:33;;;;;;;2.00;1.10;;;;;;;7.98;71.40;99421.44;5089758;28;20221;-77
2024/02/24 09:11:00;;;;;;;1.20;0.80;;;;;;;8.08;70.22;99445.44;5079342;28;20255;-77
2024/02/24 09:13:27;;;;;;;1.97;0.80;;;;;;;8.15;68.83;99467.81;5086879;28;20237;-76
2024/02/24 09:15:54;;;;;;;1.63;1.00;;;;;;;8.15;68.31;99460.00;5090805;28;20556;-77
2024/02/24 09:18:20;;;;;;;2.63;0.90;;;;;;;8.15;68.76;99491.19;5091688;28;20205;-76
2024/02/24 09:20:47;;;;;;;1.10;1.00;;;;;;;8.18;68.29;99501.50;5091188;28;20208;-76
2024/02/24 09:23:13;;;;;;;0.83;0.83;;;;;;;8.13;70.48;99513.78;5091394;28;20216;-77
2024/02/24 09:25:40;;;;;;;2.13;0.90;;;;;;;8.06;68.23;99520.00;5090900;28;20223;-77
2024/02/24 09:28:06;;;;;;;1.60;1.00;;;;;;;7.81;68.18;99554.34;5088781;28;20216;-76
2024/02/24 09:30:35;;;;;;;1.77;1.10;;;;;;;7.90;69.04;99546.34;5091423;28;20293;-75
2024/02/24 09:33:01;;;;;;;1.03;0.90;;;;;;;8.07;69.12;99524.31;5091654;28;20205;-76
2024/02/24 09:35:27;;;;;;;2.00;0.90;;;;;;;8.12;68.48;99499.06;5091160;28;20205;-77
2024/02/24 09:37:54;;;;;;;2.03;1.17;;;;;;;8.07;69.16;99521.72;5088304;28;20228;-76
2024/02/24 09:40:21;;;;;;;1.60;1.10;;;;;;;8.20;71.85;99511.88;5086600;28;20227;-76
2024/02/24 09:42:47;;;;;;;3.53;1.47;;;;;;;7.99;67.32;99529.69;5091042;28;20625;-75
2024/02/24 09:45:15;;;;;;;2.17;1.30;;;;;;;8.27;68.19;99539.44;5091337;28;20204;-77
2024/02/24 09:47:44;;;;;;;1.33;1.07;;;;;;;8.33;67.82;99545.34;5090863;28;20253;-77
2024/02/24 09:50:11;;;;;;;1.63;1.27;;;;;;;8.23;67.78;99569.84;5091466;28;20718;-77
2024/02/24 09:52:38;;;;;;;2.27;1.27;;;;;;;8.21;69.15;99573.38;5090740;28;20197;-76
2024/02/24 09:55:05;;;;;;;1.47;1.10;;;;;;;8.02;66.83;99584.19;5091263;28;20221;-77
2024/02/24 09:57:35;;;;;;;3.57;1.80;;;;;;;8.05;67.51;99584.13;5090677;28;20655;-77
2024/02/24 10:00:03;;;;;;;4.53;1.83;;;;;;;8.22;68.60;99568.13;5087776;28;20200;-76
2024/02/24 10:02:30;;;;;;;1.40;1.00;;;;;;;8.12;67.11;99582.25;5091297;28;20208;-77
2024/02/24 10:04:58;;;;;;;2.83;0.83;;;;;;;8.21;68.32;99592.44;5091023;28;20273;-77
2024/02/24 10:07:26;;;;;;;1.43;1.20;;;;;;;8.35;68.10;99590.34;5090859;28;20643;-76
2024/02/24 10:09:53;;;;;;;2.07;1.00;;;;;;;8.51;68.19;99587.44;5091032;28;20655;-77
2024/02/24 10:12:19;;;;;;;1.20;0.93;;;;;;;8.43;68.48;99599.78;5090571;28;20217;-76
2024/02/24 10:14:45;;;;;;;1.37;1.00;;;;;;;8.59;67.36;99602.84;5091284;28;20647;-74
2024/02/24 10:17:12;;;;;;;2.00;1.37;;;;;;;8.63;66.20;99633.09;5091002;28;20273;-76
2024/02/24 10:19:38;;;;;;;1.47;1.07;;;;;;;8.76;68.40;99605.91;5091314;28;20253;-77
2024/02/24 10:22:06;;;;;;;2.27;1.30;;;;;;;8.89;67.43;99612.50;5091164;28;20200;-77
2024/02/24 10:24:33;;;;;;;2.87;1.33;;;;;;;8.98;66.19;99636.56;5091228;28;20253;-77
2024/02/24 10:27:01;;;;;;;2.07;1.50;;;;;;;8.99;65.92;99646.09;5090290;28;20618;-76
2024/02/24 10:29:29;;;;;;;2.23;1.40;;;;;;;9.04;65.89;99660.72;5091173;28;20206;-76
2024/02/24 10:31:56;;;;;;;1.70;1.40;;;;;;;9.18;66.77;99644.75;5090932;28;20207;-77
2024/02/24 10:34:22;;;;;;;1.93;1.30;;;;;;;9.25;68.86;99640.22;5089786;28;20269;-76
2024/02/24 10:36:51;;;;;;;1.30;1.10;;;;;;;9.32;66.22;99641.78;5088776;28;20208;-76
2024/02/24 10:39:19;;;;;;;9.40;1.33;;;;;;;9.40;66.62;99658.03;5090848;28;20723;-74
2024/02/24 10:41:47;;;;;;;3.47;1.50;;;;;;;9.50;66.02;99656.06;5090659;28;20201;-77
2024/02/24 10:44:14;;;;;;;2.07;1.50;;;;;;;9.51;64.87;99686.41;5090717;28;20634;-78
2024/02/24 10:46:41;;;;;;;2.93;1.20;;;;;;;9.70;64.40;99691.97;5090279;28;20613;-77
2024/02/24 10:49:07;;;;;;;3.83;1.53;;;;;;;9.77;64.71;99711.75;5091083;28;20216;-78
2024/02/24 10:51:35;;;;;;;2.97;1.60;;;;;;;9.80;64.88;99711.69;5090589;28;20572;-77
2024/02/24 10:54:06;;;;;;;1.57;1.30;;;;;;;9.83;63.77;99732.47;5090369;28;20220;-76
2024/02/24 10:56:35;;;;;;;2.17;1.47;;;;;;;9.78;61.48;99759.53;5090141;28;20201;-77
2024/02/24 10:59:08;;;;;;;3.03;1.60;;;;;;;9.98;64.18;99778.09;5090815;28;20206;-77
2024/02/24 11:01:42;;;;;;;2.53;1.53;;;;;;;9.71;61.78;99801.41;5090200;28;20216;-77
2024/02/24 11:04:09;;;;;;;1.73;1.20;;;;;;;9.65;63.44;99808.50;5091775;28;20220;-77
2024/02/24 11:06:46;;;;;;;2.33;1.40;;;;;;;9.65;61.72;99812.00;5093945;28;20248;-76
2024/02/24 11:09:15;;;;;;;1.30;1.20;;;;;;;9.63;61.42;99826.81;5094433;28;20228;-77
2024/02/24 11:11:43;;;;;;;3.10;1.37;;;;;;;9.31;60.89;99838.81;5093906;28;20261;-77
2024/02/24 11:14:11;;;;;;;1.43;1.33;;;;;;;9.45;62.19;99835.91;5094310;28;20704;-76
2024/02/24 11:16:41;;;;;;;2.60;1.13;;;;;;;9.67;62.04;99831.03;5093995;28;20235;-75
2024/02/24 11:19:10;;;;;;;2.87;1.10;;;;;;;9.21;60.67;99846.91;5094465;28;20230;-75
2024/02/24 11:21:59;;;;;;;1.20;1.00;;;;;;;9.67;61.37;99836.25;5094439;28;20287;-76
2024/02/24 11:24:30;;;;;;;3.17;1.10;;;;;;;9.34;61.36;99866.56;5094180;28;20216;-75
2024/02/24 11:26:58;;;;;;;1.90;1.10;;;;;;;9.18;60.30;99883.41;5093316;28;20208;-75
2024/02/24 11:29:26;;;;;;;1.33;0.93;;;;;;;9.50;61.47;99854.03;5093639;28;20651;-75
2024/02/24 11:32:05;;;;;;;1.40;1.00;;;;;;;9.73;62.25;99848.25;5093798;28;20210;-75
2024/02/24 11:34:33;;;;;;;1.70;0.83;;;;;;;9.94;61.54;99844.25;5093753;28;20789;-76
2024/02/24 11:37:00;;;;;;;1.53;0.90;;;;;;;9.59;58.56;99868.59;5093388;28;20200;-75
2024/02/24 11:39:28;;;;;;;1.00;0.73;;;;;;;9.84;59.92;99887.94;5093745;28;20192;-75